createdAt,value
2022-08-11T00:00:40.905Z,15.20
2022-08-11T00:05:49.842Z,15.20
2022-08-11T00:10:59.951Z,15.10
2022-08-11T00:16:19.518Z,15.10
2022-08-11T00:21:35.464Z,15.00
2022-08-11T00:26:55.254Z,14.90
2022-08-11T00:32:05.710Z,14.90
2022-08-11T00:37:22.281Z,14.88
2022-08-11T00:42:49.652Z,14.80
2022-08-11T00:48:33.344Z,14.80
2022-08-11T00:54:03.843Z,14.70
2022-08-11T00:59:53.696Z,14.60
2022-08-11T01:05:17.706Z,14.60
2022-08-11T01:10:47.108Z,14.50
2022-08-11T01:16:12.235Z,14.40
2022-08-11T01:22:00.977Z,14.40
2022-08-11T01:27:24.478Z,14.30
2022-08-11T01:33:18.325Z,14.20
2022-08-11T01:38:43.030Z,14.20
2022-08-11T01:44:44.677Z,14.10
2022-08-11T01:50:10.809Z,14.10
2022-08-11T01:55:44.932Z,14.10
2022-08-11T02:01:22.445Z,14.10
2022-08-11T02:06:55.230Z,14.10
2022-08-11T02:12:29.026Z,14.10
2022-08-11T02:18:06.834Z,14.10
2022-08-11T02:24:04.440Z,14.00
2022-08-11T02:29:11.706Z,14.00
2022-08-11T02:34:32.513Z,14.00
2022-08-11T02:40:01.309Z,14.00
2022-08-11T02:45:32.672Z,13.90
2022-08-11T02:51:03.267Z,13.90
2022-08-11T02:56:47.362Z,13.80
2022-08-11T03:02:04.947Z,13.70
2022-08-11T03:07:55.909Z,13.50
2022-08-11T03:13:30.228Z,13.40
2022-08-11T03:18:52.072Z,13.30
2022-08-11T03:24:21.482Z,13.20
2022-08-11T03:30:23.435Z,13.20
2022-08-11T03:35:32.868Z,13.20
2022-08-11T03:42:03.579Z,13.28
2022-08-11T03:47:52.649Z,13.30
2022-08-11T03:53:33.032Z,13.40
2022-08-11T03:59:10.220Z,13.40
2022-08-11T04:04:57.130Z,13.50
2022-08-11T04:10:58.318Z,13.50
2022-08-11T04:16:31.071Z,13.60
2022-08-11T04:22:15.834Z,13.60
2022-08-11T04:27:48.416Z,13.80
2022-08-11T04:33:29.798Z,13.90
2022-08-11T04:39:12.318Z,14.00
2022-08-11T04:45:13.746Z,14.20
2022-08-11T04:51:08.858Z,14.40
2022-08-11T04:56:48.492Z,14.60
2022-08-11T05:02:42.261Z,14.90
2022-08-11T05:08:23.885Z,15.10
2022-08-11T05:14:06.260Z,15.40
2022-08-11T05:19:39.051Z,15.70
2022-08-11T05:26:44.063Z,15.94
2022-08-11T05:31:17.370Z,16.26
2022-08-11T05:36:35.429Z,16.50
2022-08-11T05:41:59.734Z,16.80
2022-08-11T05:47:23.813Z,17.10
2022-08-11T05:52:56.520Z,17.46
2022-08-11T05:58:06.995Z,17.80
2022-08-11T06:03:12.922Z,18.10
2022-08-11T06:08:17.692Z,18.50
2022-08-11T06:13:24.523Z,18.80
2022-08-11T06:18:31.609Z,19.08
2022-08-11T06:23:39.661Z,19.40
2022-08-11T06:28:48.704Z,19.80
2022-08-11T06:34:08.680Z,20.10
2022-08-11T06:39:38.938Z,20.40
2022-08-11T06:45:02.077Z,20.70
2022-08-11T06:50:26.889Z,21.00
2022-08-11T06:55:57.184Z,21.38
2022-08-11T07:01:13.723Z,21.64
2022-08-11T07:07:15.589Z,22.00
2022-08-11T07:13:03.637Z,22.36
2022-08-11T07:18:29.559Z,22.70
2022-08-11T07:23:56.929Z,23.00
2022-08-11T07:29:04.301Z,23.30
2022-08-11T07:34:20.354Z,23.60
2022-08-11T07:39:29.911Z,24.00
2022-08-11T07:44:56.655Z,24.22
2022-08-11T07:50:19.952Z,24.56
2022-08-11T07:55:51.181Z,24.80
2022-08-11T08:01:22.440Z,25.20
2022-08-11T08:06:48.367Z,25.60
2022-08-11T08:12:11.353Z,26.00
2022-08-11T08:17:35.539Z,26.30
2022-08-11T08:22:43.895Z,26.50
2022-08-11T08:27:53.860Z,26.68
2022-08-11T08:33:01.558Z,26.80
2022-08-11T08:38:05.784Z,26.90
2022-08-11T08:43:19.058Z,27.20
2022-08-11T08:48:27.141Z,27.50
2022-08-11T08:53:39.790Z,27.80
2022-08-11T08:59:05.509Z,28.00
2022-08-11T09:04:12.237Z,28.20
2022-08-11T09:09:18.799Z,28.60
2022-08-11T09:14:57.216Z,28.80
2022-08-11T09:20:14.163Z,29.10
2022-08-11T09:25:39.986Z,29.70
2022-08-11T09:30:54.447Z,29.40
2022-08-11T09:36:20.794Z,29.60
2022-08-11T09:41:25.731Z,29.10
2022-08-11T09:46:31.612Z,28.60
2022-08-11T09:51:36.635Z,29.02
2022-08-11T09:57:05.621Z,29.86
2022-08-11T10:02:11.834Z,30.40
2022-08-11T10:07:19.899Z,30.50
2022-08-11T10:12:38.474Z,30.46
2022-08-11T10:18:12.275Z,30.80
2022-08-11T10:23:35.753Z,30.80
2022-08-11T10:29:13.015Z,30.94
2022-08-11T10:34:19.055Z,31.20
2022-08-11T10:39:28.644Z,30.90
2022-08-11T10:44:41.598Z,30.90
2022-08-11T10:50:06.329Z,30.80
2022-08-11T10:55:30.723Z,30.82
2022-08-11T11:00:38.072Z,31.00
2022-08-11T11:06:27.206Z,31.00
2022-08-11T11:11:10.583Z,31.20
2022-08-11T11:16:44.983Z,31.30
2022-08-11T11:21:54.174Z,31.50
2022-08-11T11:27:28.250Z,31.60
2022-08-11T11:33:15.057Z,31.40
2022-08-11T11:38:20.254Z,31.40
2022-08-11T11:43:24.818Z,31.70
2022-08-11T11:48:29.824Z,32.04
2022-08-11T11:53:35.725Z,31.70
2022-08-11T11:59:00.693Z,31.88
2022-08-11T12:04:07.196Z,32.00
2022-08-11T12:09:21.482Z,31.90
2022-08-11T12:14:29.274Z,31.50
2022-08-11T12:19:35.739Z,31.86
2022-08-11T12:24:59.767Z,31.80
2022-08-11T12:30:06.907Z,31.90
2022-08-11T12:35:11.888Z,31.80
2022-08-11T12:41:11.953Z,31.60
2022-08-11T12:46:13.111Z,31.50
2022-08-11T12:52:04.515Z,31.36
2022-08-11T12:57:53.632Z,31.60
2022-08-11T13:03:17.656Z,31.90
2022-08-11T13:08:25.435Z,31.90
2022-08-11T13:13:54.378Z,31.88
2022-08-11T13:18:59.711Z,31.60
2022-08-11T13:24:06.433Z,30.92
2022-08-11T13:29:15.340Z,31.00
2022-08-11T13:34:27.279Z,31.20
2022-08-11T13:39:35.289Z,31.30
2022-08-11T13:44:41.115Z,31.24
2022-08-11T13:49:48.460Z,31.50
2022-08-11T13:54:57.810Z,31.50
2022-08-11T14:00:13.044Z,31.60
2022-08-11T14:05:46.020Z,31.90
2022-08-11T14:12:22.097Z,31.84
2022-08-11T14:16:46.339Z,31.60
2022-08-11T14:22:10.108Z,31.88
2022-08-11T14:28:32.201Z,31.90
2022-08-11T14:32:52.901Z,31.90
2022-08-11T14:38:05.414Z,32.08
2022-08-11T14:44:13.526Z,32.30
2022-08-11T14:49:07.899Z,32.20
2022-08-11T14:54:48.774Z,31.90
2022-08-11T14:59:59.721Z,32.00
2022-08-11T15:05:08.984Z,32.38
2022-08-11T15:10:22.906Z,33.62
2022-08-11T15:16:05.970Z,36.44
2022-08-11T15:21:36.048Z,38.74
2022-08-11T15:27:04.321Z,40.10
2022-08-11T15:32:31.393Z,41.24
2022-08-11T15:37:40.828Z,41.54
2022-08-11T15:43:35.835Z,41.60
2022-08-11T15:48:54.814Z,41.48
2022-08-11T15:54:09.276Z,41.20
2022-08-11T15:59:41.803Z,41.26
2022-08-11T16:04:56.035Z,41.00
2022-08-11T16:10:10.093Z,40.70
2022-08-11T16:15:32.958Z,40.10
2022-08-11T16:20:37.661Z,39.50
2022-08-11T16:27:05.336Z,39.10
2022-08-11T16:31:14.996Z,38.50
2022-08-11T16:36:42.818Z,37.90
2022-08-11T16:42:10.597Z,37.40
2022-08-11T16:48:32.811Z,36.60
2022-08-11T16:52:59.700Z,35.80
2022-08-11T16:58:25.393Z,35.40
2022-08-11T17:03:53.125Z,34.80
2022-08-11T17:09:22.338Z,34.20
2022-08-11T17:14:45.060Z,33.70
2022-08-11T17:20:39.630Z,33.00
2022-08-11T17:25:28.803Z,32.42
2022-08-11T17:30:54.226Z,31.90
2022-08-11T17:36:00.433Z,30.66
2022-08-11T17:41:25.691Z,29.60
2022-08-11T17:46:50.387Z,29.02
2022-08-11T17:52:14.576Z,27.94
2022-08-11T17:57:42.227Z,27.00
2022-08-11T18:03:10.628Z,26.22
2022-08-11T18:08:39.024Z,25.70
2022-08-11T18:14:07.421Z,25.12
2022-08-11T18:19:31.201Z,24.70
2022-08-11T18:25:08.133Z,24.30
2022-08-11T18:30:32.282Z,23.90
2022-08-11T18:35:58.725Z,23.60
2022-08-11T18:41:25.961Z,23.40
2022-08-11T18:47:05.960Z,23.10
2022-08-11T18:52:37.201Z,22.80
2022-08-11T18:58:11.524Z,22.60
2022-08-11T19:03:48.609Z,22.40
2022-08-11T19:09:19.464Z,22.20
2022-08-11T19:14:45.083Z,22.10
2022-08-11T19:20:14.914Z,22.00
2022-08-11T19:25:42.277Z,21.78
2022-08-11T19:31:07.096Z,21.60
2022-08-11T19:36:32.138Z,21.40
2022-08-11T19:41:58.450Z,21.24
2022-08-11T19:47:22.768Z,21.10
2022-08-11T19:52:48.032Z,21.00
2022-08-11T19:58:13.902Z,20.80
2022-08-11T20:03:37.104Z,20.70
2022-08-11T20:09:03.673Z,20.60
2022-08-11T20:14:30.257Z,20.40
2022-08-11T20:25:27.088Z,20.20
2022-08-11T20:30:52.461Z,20.10
2022-08-11T20:36:16.035Z,19.92
2022-08-11T20:41:58.251Z,19.80
2022-08-11T20:47:25.086Z,19.70
2022-08-11T20:52:51.578Z,19.60
2022-08-11T20:58:15.594Z,19.50
2022-08-11T21:03:45.260Z,19.40
2022-08-11T21:09:58.675Z,19.20
2022-08-11T21:15:08.826Z,19.10
2022-08-11T21:20:36.720Z,18.98
2022-08-11T21:26:14.217Z,18.80
2022-08-11T21:31:40.259Z,18.70
2022-08-11T21:37:07.019Z,18.60
2022-08-11T21:42:34.021Z,18.50
2022-08-11T21:48:01.127Z,18.40
2022-08-11T21:53:25.629Z,18.30
2022-08-11T21:58:50.634Z,18.20
2022-08-11T22:04:15.549Z,18.10
2022-08-11T22:09:38.518Z,17.92
2022-08-11T22:15:05.881Z,17.80
2022-08-11T22:20:31.920Z,17.70
2022-08-11T22:25:58.606Z,17.70
2022-08-11T22:31:26.546Z,17.60
2022-08-11T22:36:52.373Z,17.60
2022-08-11T22:42:15.341Z,17.50
2022-08-11T22:47:42.196Z,17.40
2022-08-11T22:53:10.380Z,17.20
2022-08-11T22:58:36.010Z,17.10
2022-08-11T23:04:00.615Z,17.00
2022-08-11T23:09:25.519Z,16.90
2022-08-11T23:14:50.323Z,16.80
2022-08-11T23:20:40.274Z,16.70
2022-08-11T23:26:01.554Z,16.60
2022-08-11T23:31:26.645Z,16.60
2022-08-11T23:37:07.724Z,16.50
2022-08-11T23:42:31.820Z,16.44
2022-08-11T23:48:02.154Z,16.40
2022-08-11T23:53:27.672Z,16.30
2022-08-11T23:58:53.513Z,16.20
